sensor_id;sensor_type;location;lat;lon;timestamp;P1;durP1;ratioP1;P2;durP2;ratioP2
24681;SDS011;12802;53.390;-2.328;2022-11-06T00:00:05;71.35;;;35.60;;
24681;SDS011;12802;53.390;-2.328;2022-11-06T00:02:32;62.67;;;34.53;;
24681;SDS011;12802;53.390;-2.328;2022-11-06T00:04:57;73.32;;;37.05;;
24681;SDS011;12802;53.390;-2.328;2022-11-06T00:07:44;58.58;;;33.08;;
24681;SDS011;12802;53.390;-2.328;2022-11-06T00:10:11;59.35;;;33.10;;
24681;SDS011;12802;53.390;-2.328;2022-11-06T00:12:37;59.42;;;30.77;;
24681;SDS011;12802;53.390;-2.328;2022-11-06T00:15:03;53.50;;;29.85;;
24681;SDS011;12802;53.390;-2.328;2022-11-06T00:17:29;54.83;;;29.63;;
24681;SDS011;12802;53.390;-2.328;2022-11-06T00:19:55;52.35;;;27.98;;
24681;SDS011;12802;53.390;-2.328;2022-11-06T00:22:21;52.47;;;28.08;;
24681;SDS011;12802;53.390;-2.328;2022-11-06T00:24:47;51.00;;;31.30;;
24681;SDS011;12802;53.390;-2.328;2022-11-06T00:27:15;55.72;;;30.55;;
24681;SDS011;12802;53.390;-2.328;2022-11-06T00:29:41;51.67;;;31.60;;
24681;SDS011;12802;53.390;-2.328;2022-11-06T00:32:07;64.63;;;30.55;;
24681;SDS011;12802;53.390;-2.328;2022-11-06T00:34:33;51.22;;;29.42;;
24681;SDS011;12802;53.390;-2.328;2022-11-06T00:36:59;55.75;;;31.50;;
24681;SDS011;12802;53.390;-2.328;2022-11-06T00:39:24;53.28;;;29.77;;
24681;SDS011;12802;53.390;-2.328;2022-11-06T00:41:51;59.38;;;28.98;;
24681;SDS011;12802;53.390;-2.328;2022-11-06T00:44:17;63.88;;;28.40;;
24681;SDS011;12802;53.390;-2.328;2022-11-06T00:46:43;57.50;;;26.98;;
24681;SDS011;12802;53.390;-2.328;2022-11-06T00:49:08;51.15;;;29.08;;
24681;SDS011;12802;53.390;-2.328;2022-11-06T00:51:35;49.42;;;28.02;;
24681;SDS011;12802;53.390;-2.328;2022-11-06T00:54:04;57.00;;;27.23;;
24681;SDS011;12802;53.390;-2.328;2022-11-06T00:56:32;50.38;;;25.33;;
24681;SDS011;12802;53.390;-2.328;2022-11-06T00:59:02;53.92;;;25.50;;
24681;SDS011;12802;53.390;-2.328;2022-11-06T01:01:31;53.10;;;25.95;;
24681;SDS011;12802;53.390;-2.328;2022-11-06T01:04:01;50.75;;;23.52;;
24681;SDS011;12802;53.390;-2.328;2022-11-06T01:06:30;60.63;;;24.98;;
24681;SDS011;12802;53.390;-2.328;2022-11-06T01:09:02;35.20;;;22.30;;
24681;SDS011;12802;53.390;-2.328;2022-11-06T01:11:30;36.88;;;22.23;;
24681;SDS011;12802;53.390;-2.328;2022-11-06T01:13:58;44.63;;;23.75;;
24681;SDS011;12802;53.390;-2.328;2022-11-06T01:16:25;34.78;;;20.83;;
24681;SDS011;12802;53.390;-2.328;2022-11-06T01:18:52;35.03;;;21.10;;
24681;SDS011;12802;53.390;-2.328;2022-11-06T01:21:20;35.20;;;20.98;;
24681;SDS011;12802;53.390;-2.328;2022-11-06T01:23:52;39.83;;;18.77;;
24681;SDS011;12802;53.390;-2.328;2022-11-06T01:26:19;38.92;;;20.33;;
24681;SDS011;12802;53.390;-2.328;2022-11-06T01:28:46;42.78;;;20.15;;
24681;SDS011;12802;53.390;-2.328;2022-11-06T01:31:13;41.78;;;22.30;;
24681;SDS011;12802;53.390;-2.328;2022-11-06T01:33:40;41.63;;;21.67;;
24681;SDS011;12802;53.390;-2.328;2022-11-06T01:36:10;38.05;;;19.02;;
24681;SDS011;12802;53.390;-2.328;2022-11-06T01:38:41;37.00;;;19.92;;
24681;SDS011;12802;53.390;-2.328;2022-11-06T01:41:08;39.88;;;18.08;;
24681;SDS011;12802;53.390;-2.328;2022-11-06T01:43:48;29.85;;;16.60;;
24681;SDS011;12802;53.390;-2.328;2022-11-06T01:46:22;29.38;;;16.67;;
24681;SDS011;12802;53.390;-2.328;2022-11-06T01:48:54;27.98;;;15.35;;
24681;SDS011;12802;53.390;-2.328;2022-11-06T01:51:30;40.90;;;15.32;;
24681;SDS011;12802;53.390;-2.328;2022-11-06T01:53:58;24.10;;;16.35;;
24681;SDS011;12802;53.390;-2.328;2022-11-06T01:56:26;31.13;;;15.70;;
24681;SDS011;12802;53.390;-2.328;2022-11-06T01:58:52;33.35;;;13.80;;
24681;SDS011;12802;53.390;-2.328;2022-11-06T02:01:19;27.52;;;14.30;;
24681;SDS011;12802;53.390;-2.328;2022-11-06T02:03:49;36.88;;;14.35;;
24681;SDS011;12802;53.390;-2.328;2022-11-06T02:06:20;24.67;;;13.27;;
24681;SDS011;12802;53.390;-2.328;2022-11-06T02:08:46;32.08;;;14.27;;
24681;SDS011;12802;53.390;-2.328;2022-11-06T02:11:12;32.67;;;14.13;;
24681;SDS011;12802;53.390;-2.328;2022-11-06T02:22:10;27.10;;;12.63;;
24681;SDS011;12802;53.390;-2.328;2022-11-06T02:24:56;24.65;;;12.60;;
24681;SDS011;12802;53.390;-2.328;2022-11-06T02:27:25;23.83;;;12.50;;
24681;SDS011;12802;53.390;-2.328;2022-11-06T02:29:55;28.70;;;11.90;;
24681;SDS011;12802;53.390;-2.328;2022-11-06T02:33:04;25.38;;;12.02;;
24681;SDS011;12802;53.390;-2.328;2022-11-06T02:38:25;18.10;;;11.18;;
24681;SDS011;12802;53.390;-2.328;2022-11-06T02:41:06;21.85;;;11.73;;
24681;SDS011;12802;53.390;-2.328;2022-11-06T02:43:36;19.67;;;9.38;;
24681;SDS011;12802;53.390;-2.328;2022-11-06T02:46:26;22.73;;;11.00;;
24681;SDS011;12802;53.390;-2.328;2022-11-06T02:49:11;18.48;;;9.55;;
24681;SDS011;12802;53.390;-2.328;2022-11-06T02:52:03;16.88;;;10.00;;
24681;SDS011;12802;53.390;-2.328;2022-11-06T02:54:36;22.70;;;9.40;;
24681;SDS011;12802;53.390;-2.328;2022-11-06T02:59:39;17.33;;;10.23;;
24681;SDS011;12802;53.390;-2.328;2022-11-06T03:02:07;21.10;;;8.68;;
24681;SDS011;12802;53.390;-2.328;2022-11-06T03:04:44;27.63;;;9.02;;
24681;SDS011;12802;53.390;-2.328;2022-11-06T03:07:19;12.85;;;8.35;;
24681;SDS011;12802;53.390;-2.328;2022-11-06T03:10:07;25.63;;;9.32;;
24681;SDS011;12802;53.390;-2.328;2022-11-06T03:12:43;26.80;;;8.50;;
24681;SDS011;12802;53.390;-2.328;2022-11-06T03:15:38;18.42;;;10.25;;
24681;SDS011;12802;53.390;-2.328;2022-11-06T03:18:32;16.48;;;8.10;;
24681;SDS011;12802;53.390;-2.328;2022-11-06T03:21:20;21.70;;;8.65;;
24681;SDS011;12802;53.390;-2.328;2022-11-06T03:23:54;24.15;;;9.75;;
24681;SDS011;12802;53.390;-2.328;2022-11-06T03:26:27;19.00;;;8.70;;
24681;SDS011;12802;53.390;-2.328;2022-11-06T03:29:00;22.50;;;11.45;;
24681;SDS011;12802;53.390;-2.328;2022-11-06T03:31:36;15.70;;;8.82;;
24681;SDS011;12802;53.390;-2.328;2022-11-06T03:34:11;22.13;;;9.15;;
24681;SDS011;12802;53.390;-2.328;2022-11-06T03:36:46;20.67;;;7.38;;
24681;SDS011;12802;53.390;-2.328;2022-11-06T03:39:26;18.58;;;7.78;;
24681;SDS011;12802;53.390;-2.328;2022-11-06T03:41:58;29.48;;;8.60;;
24681;SDS011;12802;53.390;-2.328;2022-11-06T03:44:31;14.65;;;7.90;;
24681;SDS011;12802;53.390;-2.328;2022-11-06T03:47:06;23.23;;;9.93;;
24681;SDS011;12802;53.390;-2.328;2022-11-06T03:49:38;16.50;;;10.80;;
24681;SDS011;12802;53.390;-2.328;2022-11-06T03:52:14;14.52;;;8.23;;
24681;SDS011;12802;53.390;-2.328;2022-11-06T03:55:17;16.88;;;8.77;;
24681;SDS011;12802;53.390;-2.328;2022-11-06T03:57:40;37.53;;;10.93;;
24681;SDS011;12802;53.390;-2.328;2022-11-06T04:00:10;20.33;;;9.73;;
24681;SDS011;12802;53.390;-2.328;2022-11-06T04:05:09;21.08;;;8.65;;
24681;SDS011;12802;53.390;-2.328;2022-11-06T04:07:42;21.35;;;8.50;;
24681;SDS011;12802;53.390;-2.328;2022-11-06T04:10:32;18.27;;;9.48;;
24681;SDS011;12802;53.390;-2.328;2022-11-06T04:13:20;24.02;;;10.02;;
24681;SDS011;12802;53.390;-2.328;2022-11-06T04:16:06;18.77;;;9.48;;
24681;SDS011;12802;53.390;-2.328;2022-11-06T04:18:33;16.00;;;9.18;;
24681;SDS011;12802;53.390;-2.328;2022-11-06T04:21:07;20.58;;;9.35;;
24681;SDS011;12802;53.390;-2.328;2022-11-06T04:24:12;25.60;;;9.63;;
24681;SDS011;12802;53.390;-2.328;2022-11-06T04:32:24;21.08;;;8.63;;
24681;SDS011;12802;53.390;-2.328;2022-11-06T04:43:29;20.33;;;10.07;;
24681;SDS011;12802;53.390;-2.328;2022-11-06T04:46:09;14.00;;;8.65;;
24681;SDS011;12802;53.390;-2.328;2022-11-06T04:48:37;17.33;;;10.00;;
24681;SDS011;12802;53.390;-2.328;2022-11-06T04:51:05;24.98;;;10.55;;
24681;SDS011;12802;53.390;-2.328;2022-11-06T04:53:33;25.25;;;10.35;;
24681;SDS011;12802;53.390;-2.328;2022-11-06T04:56:05;19.83;;;9.95;;
24681;SDS011;12802;53.390;-2.328;2022-11-06T04:58:34;22.48;;;10.80;;
24681;SDS011;12802;53.390;-2.328;2022-11-06T05:00:59;20.92;;;10.32;;
24681;SDS011;12802;53.390;-2.328;2022-11-06T05:03:25;21.50;;;11.38;;
24681;SDS011;12802;53.390;-2.328;2022-11-06T05:05:51;19.38;;;10.93;;
24681;SDS011;12802;53.390;-2.328;2022-11-06T05:08:18;27.00;;;11.18;;
24681;SDS011;12802;53.390;-2.328;2022-11-06T05:10:45;23.65;;;11.32;;
24681;SDS011;12802;53.390;-2.328;2022-11-06T05:13:12;21.75;;;11.90;;
24681;SDS011;12802;53.390;-2.328;2022-11-06T05:15:38;25.48;;;12.35;;
24681;SDS011;12802;53.390;-2.328;2022-11-06T05:18:04;33.10;;;14.32;;
24681;SDS011;12802;53.390;-2.328;2022-11-06T05:20:30;24.00;;;12.05;;
24681;SDS011;12802;53.390;-2.328;2022-11-06T05:22:56;29.15;;;12.98;;
24681;SDS011;12802;53.390;-2.328;2022-11-06T05:25:32;28.52;;;13.35;;
24681;SDS011;12802;53.390;-2.328;2022-11-06T05:28:00;26.55;;;13.05;;
24681;SDS011;12802;53.390;-2.328;2022-11-06T05:30:29;20.92;;;12.32;;
24681;SDS011;12802;53.390;-2.328;2022-11-06T05:32:55;30.65;;;13.80;;
24681;SDS011;12802;53.390;-2.328;2022-11-06T05:35:21;28.58;;;14.43;;
24681;SDS011;12802;53.390;-2.328;2022-11-06T05:37:47;22.45;;;12.82;;
24681;SDS011;12802;53.390;-2.328;2022-11-06T05:40:13;20.65;;;12.88;;
24681;SDS011;12802;53.390;-2.328;2022-11-06T05:42:39;24.80;;;12.65;;
24681;SDS011;12802;53.390;-2.328;2022-11-06T05:45:06;24.63;;;13.63;;
24681;SDS011;12802;53.390;-2.328;2022-11-06T05:47:33;22.05;;;13.18;;
24681;SDS011;12802;53.390;-2.328;2022-11-06T05:49:58;29.17;;;14.35;;
24681;SDS011;12802;53.390;-2.328;2022-11-06T05:52:24;33.88;;;14.23;;
24681;SDS011;12802;53.390;-2.328;2022-11-06T05:54:50;23.20;;;14.48;;
24681;SDS011;12802;53.390;-2.328;2022-11-06T05:57:16;27.77;;;13.60;;
24681;SDS011;12802;53.390;-2.328;2022-11-06T05:59:42;28.05;;;14.60;;
24681;SDS011;12802;53.390;-2.328;2022-11-06T06:02:08;34.40;;;14.85;;
24681;SDS011;12802;53.390;-2.328;2022-11-06T06:04:34;27.73;;;14.13;;
24681;SDS011;12802;53.390;-2.328;2022-11-06T06:07:00;25.20;;;13.95;;
24681;SDS011;12802;53.390;-2.328;2022-11-06T06:09:26;30.65;;;13.98;;
24681;SDS011;12802;53.390;-2.328;2022-11-06T06:11:52;25.40;;;13.60;;
24681;SDS011;12802;53.390;-2.328;2022-11-06T06:14:19;32.38;;;14.13;;
24681;SDS011;12802;53.390;-2.328;2022-11-06T06:16:45;31.10;;;14.50;;
24681;SDS011;12802;53.390;-2.328;2022-11-06T06:19:10;23.98;;;14.25;;
24681;SDS011;12802;53.390;-2.328;2022-11-06T06:21:37;27.67;;;14.88;;
24681;SDS011;12802;53.390;-2.328;2022-11-06T06:24:03;26.17;;;13.80;;
24681;SDS011;12802;53.390;-2.328;2022-11-06T06:26:29;35.83;;;14.02;;
24681;SDS011;12802;53.390;-2.328;2022-11-06T06:28:55;31.08;;;14.02;;
24681;SDS011;12802;53.390;-2.328;2022-11-06T06:31:21;30.17;;;14.27;;
24681;SDS011;12802;53.390;-2.328;2022-11-06T06:33:47;25.13;;;13.52;;
24681;SDS011;12802;53.390;-2.328;2022-11-06T06:36:13;27.92;;;14.88;;
24681;SDS011;12802;53.390;-2.328;2022-11-06T06:38:39;25.13;;;13.65;;
24681;SDS011;12802;53.390;-2.328;2022-11-06T06:41:06;35.08;;;15.07;;
24681;SDS011;12802;53.390;-2.328;2022-11-06T06:43:33;30.13;;;13.95;;
24681;SDS011;12802;53.390;-2.328;2022-11-06T06:45:59;30.55;;;16.10;;
24681;SDS011;12802;53.390;-2.328;2022-11-06T06:48:28;25.58;;;14.10;;
24681;SDS011;12802;53.390;-2.328;2022-11-06T06:50:58;29.52;;;14.82;;
24681;SDS011;12802;53.390;-2.328;2022-11-06T06:53:24;27.70;;;13.68;;
24681;SDS011;12802;53.390;-2.328;2022-11-06T06:55:50;30.13;;;14.30;;
24681;SDS011;12802;53.390;-2.328;2022-11-06T06:58:16;30.23;;;15.80;;
24681;SDS011;12802;53.390;-2.328;2022-11-06T07:00:42;27.02;;;13.90;;
24681;SDS011;12802;53.390;-2.328;2022-11-06T07:03:08;31.02;;;13.20;;
24681;SDS011;12802;53.390;-2.328;2022-11-06T07:05:34;23.77;;;11.73;;
24681;SDS011;12802;53.390;-2.328;2022-11-06T07:08:00;25.77;;;11.88;;
24681;SDS011;12802;53.390;-2.328;2022-11-06T07:10:26;32.55;;;13.23;;
24681;SDS011;12802;53.390;-2.328;2022-11-06T07:12:54;41.55;;;12.60;;
24681;SDS011;12802;53.390;-2.328;2022-11-06T07:15:20;21.33;;;9.85;;
24681;SDS011;12802;53.390;-2.328;2022-11-06T07:17:45;30.10;;;11.57;;
24681;SDS011;12802;53.390;-2.328;2022-11-06T07:20:11;24.88;;;11.70;;
24681;SDS011;12802;53.390;-2.328;2022-11-06T07:22:37;34.72;;;12.15;;
24681;SDS011;12802;53.390;-2.328;2022-11-06T07:25:03;23.95;;;10.10;;
24681;SDS011;12802;53.390;-2.328;2022-11-06T07:27:29;21.15;;;11.45;;
24681;SDS011;12802;53.390;-2.328;2022-11-06T07:29:55;27.85;;;9.93;;
24681;SDS011;12802;53.390;-2.328;2022-11-06T07:32:21;24.40;;;10.52;;
24681;SDS011;12802;53.390;-2.328;2022-11-06T07:34:47;33.08;;;11.95;;
24681;SDS011;12802;53.390;-2.328;2022-11-06T07:37:12;23.65;;;10.38;;
24681;SDS011;12802;53.390;-2.328;2022-11-06T07:39:38;21.70;;;11.45;;
24681;SDS011;12802;53.390;-2.328;2022-11-06T07:42:04;22.02;;;11.77;;
24681;SDS011;12802;53.390;-2.328;2022-11-06T07:44:34;21.60;;;11.32;;
24681;SDS011;12802;53.390;-2.328;2022-11-06T07:47:00;24.25;;;10.02;;
24681;SDS011;12802;53.390;-2.328;2022-11-06T07:49:26;29.27;;;12.07;;
24681;SDS011;12802;53.390;-2.328;2022-11-06T07:51:51;25.95;;;10.95;;
24681;SDS011;12802;53.390;-2.328;2022-11-06T07:54:17;22.25;;;10.95;;
24681;SDS011;12802;53.390;-2.328;2022-11-06T07:56:43;19.73;;;11.30;;
24681;SDS011;12802;53.390;-2.328;2022-11-06T07:59:09;28.95;;;10.27;;
24681;SDS011;12802;53.390;-2.328;2022-11-06T08:01:34;31.75;;;11.07;;
24681;SDS011;12802;53.390;-2.328;2022-11-06T08:04:00;29.30;;;12.07;;
24681;SDS011;12802;53.390;-2.328;2022-11-06T08:06:29;24.25;;;11.15;;
24681;SDS011;12802;53.390;-2.328;2022-11-06T08:08:54;23.20;;;11.05;;
24681;SDS011;12802;53.390;-2.328;2022-11-06T08:11:20;16.80;;;10.27;;
24681;SDS011;12802;53.390;-2.328;2022-11-06T08:13:46;30.77;;;10.32;;
24681;SDS011;12802;53.390;-2.328;2022-11-06T08:16:12;21.92;;;10.52;;
24681;SDS011;12802;53.390;-2.328;2022-11-06T08:18:39;28.75;;;10.65;;
24681;SDS011;12802;53.390;-2.328;2022-11-06T08:21:05;20.90;;;9.32;;
24681;SDS011;12802;53.390;-2.328;2022-11-06T08:23:32;17.08;;;9.68;;
24681;SDS011;12802;53.390;-2.328;2022-11-06T08:26:00;16.27;;;9.98;;
24681;SDS011;12802;53.390;-2.328;2022-11-06T08:28:27;25.98;;;10.38;;
24681;SDS011;12802;53.390;-2.328;2022-11-06T08:30:53;22.45;;;9.32;;
24681;SDS011;12802;53.390;-2.328;2022-11-06T08:33:20;16.98;;;9.85;;
24681;SDS011;12802;53.390;-2.328;2022-11-06T08:35:47;21.65;;;8.18;;
24681;SDS011;12802;53.390;-2.328;2022-11-06T08:38:13;18.92;;;8.57;;
24681;SDS011;12802;53.390;-2.328;2022-11-06T08:40:39;28.33;;;9.05;;
24681;SDS011;12802;53.390;-2.328;2022-11-06T08:43:06;16.77;;;8.75;;
24681;SDS011;12802;53.390;-2.328;2022-11-06T08:45:38;16.43;;;7.33;;
24681;SDS011;12802;53.390;-2.328;2022-11-06T08:48:05;20.70;;;8.23;;
24681;SDS011;12802;53.390;-2.328;2022-11-06T08:50:32;16.33;;;7.43;;
24681;SDS011;12802;53.390;-2.328;2022-11-06T08:52:59;28.77;;;8.27;;
24681;SDS011;12802;53.390;-2.328;2022-11-06T08:55:29;26.48;;;8.00;;
24681;SDS011;12802;53.390;-2.328;2022-11-06T08:57:55;28.08;;;8.45;;
24681;SDS011;12802;53.390;-2.328;2022-11-06T09:00:21;14.18;;;8.45;;
24681;SDS011;12802;53.390;-2.328;2022-11-06T09:02:47;20.80;;;9.15;;
24681;SDS011;12802;53.390;-2.328;2022-11-06T09:05:13;19.33;;;7.78;;
24681;SDS011;12802;53.390;-2.328;2022-11-06T09:07:39;20.70;;;7.47;;
24681;SDS011;12802;53.390;-2.328;2022-11-06T09:10:05;21.75;;;7.55;;
24681;SDS011;12802;53.390;-2.328;2022-11-06T09:12:31;18.17;;;8.75;;
24681;SDS011;12802;53.390;-2.328;2022-11-06T09:14:56;16.63;;;7.55;;
24681;SDS011;12802;53.390;-2.328;2022-11-06T09:17:22;24.85;;;8.15;;
24681;SDS011;12802;53.390;-2.328;2022-11-06T09:19:51;19.38;;;7.82;;
24681;SDS011;12802;53.390;-2.328;2022-11-06T09:22:18;18.00;;;8.48;;
24681;SDS011;12802;53.390;-2.328;2022-11-06T09:24:44;26.55;;;6.68;;
24681;SDS011;12802;53.390;-2.328;2022-11-06T09:27:10;16.48;;;7.70;;
24681;SDS011;12802;53.390;-2.328;2022-11-06T09:29:35;23.23;;;8.35;;
24681;SDS011;12802;53.390;-2.328;2022-11-06T09:32:05;19.13;;;6.97;;
24681;SDS011;12802;53.390;-2.328;2022-11-06T09:34:31;16.25;;;7.63;;
24681;SDS011;12802;53.390;-2.328;2022-11-06T09:36:57;22.67;;;7.95;;
24681;SDS011;12802;53.390;-2.328;2022-11-06T09:39:25;23.13;;;7.68;;
24681;SDS011;12802;53.390;-2.328;2022-11-06T09:46:48;15.55;;;5.57;;
24681;SDS011;12802;53.390;-2.328;2022-11-06T09:54:31;26.23;;;7.40;;
24681;SDS011;12802;53.390;-2.328;2022-11-06T09:57:12;18.13;;;6.53;;
24681;SDS011;12802;53.390;-2.328;2022-11-06T09:59:45;15.23;;;5.95;;
24681;SDS011;12802;53.390;-2.328;2022-11-06T10:02:18;20.00;;;5.95;;
24681;SDS011;12802;53.390;-2.328;2022-11-06T10:05:06;18.42;;;7.15;;
24681;SDS011;12802;53.390;-2.328;2022-11-06T10:07:39;17.25;;;6.47;;
24681;SDS011;12802;53.390;-2.328;2022-11-06T10:10:07;13.60;;;5.82;;
24681;SDS011;12802;53.390;-2.328;2022-11-06T10:17:53;10.60;;;6.05;;
24681;SDS011;12802;53.390;-2.328;2022-11-06T10:20:51;17.98;;;5.60;;
24681;SDS011;12802;53.390;-2.328;2022-11-06T10:23:24;18.95;;;5.25;;
24681;SDS011;12802;53.390;-2.328;2022-11-06T10:34:35;16.02;;;4.85;;
24681;SDS011;12802;53.390;-2.328;2022-11-06T10:39:42;19.00;;;5.22;;
24681;SDS011;12802;53.390;-2.328;2022-11-06T10:42:18;12.18;;;6.00;;
24681;SDS011;12802;53.390;-2.328;2022-11-06T10:44:50;11.32;;;5.25;;
24681;SDS011;12802;53.390;-2.328;2022-11-06T10:47:23;19.52;;;8.25;;
24681;SDS011;12802;53.390;-2.328;2022-11-06T10:49:54;21.17;;;8.38;;
24681;SDS011;12802;53.390;-2.328;2022-11-06T11:00:36;12.70;;;6.00;;
24681;SDS011;12802;53.390;-2.328;2022-11-06T11:03:18;14.77;;;5.88;;
24681;SDS011;12802;53.390;-2.328;2022-11-06T11:05:48;19.88;;;5.95;;
24681;SDS011;12802;53.390;-2.328;2022-11-06T11:16:15;14.40;;;5.75;;
24681;SDS011;12802;53.390;-2.328;2022-11-06T11:18:43;8.43;;;4.68;;
24681;SDS011;12802;53.390;-2.328;2022-11-06T11:21:14;9.38;;;4.57;;
24681;SDS011;12802;53.390;-2.328;2022-11-06T11:23:43;9.27;;;4.72;;
24681;SDS011;12802;53.390;-2.328;2022-11-06T11:28:41;11.93;;;4.82;;
24681;SDS011;12802;53.390;-2.328;2022-11-06T11:31:11;13.07;;;4.78;;
24681;SDS011;12802;53.390;-2.328;2022-11-06T11:33:41;18.50;;;5.03;;
24681;SDS011;12802;53.390;-2.328;2022-11-06T11:36:14;11.52;;;5.15;;
24681;SDS011;12802;53.390;-2.328;2022-11-06T11:38:40;12.43;;;5.32;;
24681;SDS011;12802;53.390;-2.328;2022-11-06T11:41:28;7.80;;;4.43;;
24681;SDS011;12802;53.390;-2.328;2022-11-06T11:44:06;15.10;;;4.78;;
24681;SDS011;12802;53.390;-2.328;2022-11-06T11:46:45;11.85;;;5.13;;
24681;SDS011;12802;53.390;-2.328;2022-11-06T11:49:25;15.73;;;4.75;;
24681;SDS011;12802;53.390;-2.328;2022-11-06T11:51:59;12.25;;;6.10;;
24681;SDS011;12802;53.390;-2.328;2022-11-06T11:54:32;12.82;;;5.05;;
24681;SDS011;12802;53.390;-2.328;2022-11-06T11:59:43;13.32;;;4.82;;
24681;SDS011;12802;53.390;-2.328;2022-11-06T12:05:11;15.98;;;4.07;;
24681;SDS011;12802;53.390;-2.328;2022-11-06T12:07:41;11.02;;;4.82;;
24681;SDS011;12802;53.390;-2.328;2022-11-06T12:10:21;9.68;;;4.70;;
24681;SDS011;12802;53.390;-2.328;2022-11-06T12:12:57;11.82;;;5.07;;
24681;SDS011;12802;53.390;-2.328;2022-11-06T12:18:29;10.57;;;4.18;;
24681;SDS011;12802;53.390;-2.328;2022-11-06T12:29:06;11.13;;;5.18;;
24681;SDS011;12802;53.390;-2.328;2022-11-06T12:34:37;14.18;;;5.57;;
24681;SDS011;12802;53.390;-2.328;2022-11-06T12:37:28;11.40;;;5.15;;
24681;SDS011;12802;53.390;-2.328;2022-11-06T12:40:19;11.43;;;5.15;;
24681;SDS011;12802;53.390;-2.328;2022-11-06T12:43:04;10.02;;;4.90;;
24681;SDS011;12802;53.390;-2.328;2022-11-06T12:45:39;12.27;;;5.55;;
24681;SDS011;12802;53.390;-2.328;2022-11-06T12:50:58;24.13;;;9.30;;
24681;SDS011;12802;53.390;-2.328;2022-11-06T12:53:33;25.20;;;9.90;;
24681;SDS011;12802;53.390;-2.328;2022-11-06T12:56:11;18.33;;;10.70;;
24681;SDS011;12802;53.390;-2.328;2022-11-06T13:04:06;18.63;;;7.97;;
24681;SDS011;12802;53.390;-2.328;2022-11-06T13:09:28;12.00;;;6.03;;
24681;SDS011;12802;53.390;-2.328;2022-11-06T13:12:10;8.85;;;5.43;;
24681;SDS011;12802;53.390;-2.328;2022-11-06T13:15:02;12.77;;;5.47;;
24681;SDS011;12802;53.390;-2.328;2022-11-06T13:17:40;10.48;;;6.10;;
24681;SDS011;12802;53.390;-2.328;2022-11-06T13:25:37;12.68;;;5.68;;
24681;SDS011;12802;53.390;-2.328;2022-11-06T13:28:39;13.77;;;5.70;;
24681;SDS011;12802;53.390;-2.328;2022-11-06T13:31:13;8.30;;;4.55;;
24681;SDS011;12802;53.390;-2.328;2022-11-06T13:33:45;6.55;;;3.70;;
24681;SDS011;12802;53.390;-2.328;2022-11-06T13:36:11;10.33;;;4.87;;
24681;SDS011;12802;53.390;-2.328;2022-11-06T13:38:44;7.20;;;4.55;;
24681;SDS011;12802;53.390;-2.328;2022-11-06T13:41:14;13.40;;;4.63;;
24681;SDS011;12802;53.390;-2.328;2022-11-06T13:43:49;8.60;;;4.60;;
24681;SDS011;12802;53.390;-2.328;2022-11-06T13:57:35;8.43;;;3.88;;
24681;SDS011;12802;53.390;-2.328;2022-11-06T14:11:16;6.57;;;3.95;;
24681;SDS011;12802;53.390;-2.328;2022-11-06T14:16:35;6.78;;;4.00;;
24681;SDS011;12802;53.390;-2.328;2022-11-06T14:26:54;9.43;;;3.67;;
24681;SDS011;12802;53.390;-2.328;2022-11-06T14:34:42;6.32;;;3.30;;
24681;SDS011;12802;53.390;-2.328;2022-11-06T14:42:57;8.60;;;2.33;;
24681;SDS011;12802;53.390;-2.328;2022-11-06T14:45:16;7.40;;;2.55;;
24681;SDS011;12802;53.390;-2.328;2022-11-06T14:53:00;7.65;;;3.30;;
24681;SDS011;12802;53.390;-2.328;2022-11-06T14:56:11;5.55;;;3.38;;
24681;SDS011;12802;53.390;-2.328;2022-11-06T14:58:31;7.28;;;2.78;;
24681;SDS011;12802;53.390;-2.328;2022-11-06T15:13:59;8.48;;;3.13;;
24681;SDS011;12802;53.390;-2.328;2022-11-06T15:16:47;5.03;;;2.65;;
24681;SDS011;12802;53.390;-2.328;2022-11-06T15:19:32;5.05;;;2.78;;
24681;SDS011;12802;53.390;-2.328;2022-11-06T15:27:37;2.28;;;1.77;;
24681;SDS011;12802;53.390;-2.328;2022-11-06T15:30:12;3.13;;;2.10;;
24681;SDS011;12802;53.390;-2.328;2022-11-06T15:32:44;5.32;;;2.45;;
24681;SDS011;12802;53.390;-2.328;2022-11-06T15:38:27;4.15;;;2.67;;
24681;SDS011;12802;53.390;-2.328;2022-11-06T15:40:39;7.50;;;3.35;;
24681;SDS011;12802;53.390;-2.328;2022-11-06T15:43:07;6.53;;;3.80;;
24681;SDS011;12802;53.390;-2.328;2022-11-06T15:46:36;8.10;;;3.13;;
24681;SDS011;12802;53.390;-2.328;2022-11-06T15:48:46;5.95;;;3.20;;
24681;SDS011;12802;53.390;-2.328;2022-11-06T15:53:45;4.50;;;2.70;;
24681;SDS011;12802;53.390;-2.328;2022-11-06T15:56:11;6.00;;;2.28;;
24681;SDS011;12802;53.390;-2.328;2022-11-06T15:58:38;11.15;;;3.50;;
24681;SDS011;12802;53.390;-2.328;2022-11-06T16:01:04;14.80;;;3.40;;
24681;SDS011;12802;53.390;-2.328;2022-11-06T16:03:41;5.50;;;3.03;;
24681;SDS011;12802;53.390;-2.328;2022-11-06T16:06:15;11.43;;;3.95;;
24681;SDS011;12802;53.390;-2.328;2022-11-06T16:08:41;11.05;;;3.58;;
24681;SDS011;12802;53.390;-2.328;2022-11-06T16:11:12;13.35;;;3.30;;
24681;SDS011;12802;53.390;-2.328;2022-11-06T16:13:41;6.07;;;3.00;;
24681;SDS011;12802;53.390;-2.328;2022-11-06T16:19:14;4.18;;;2.70;;
24681;SDS011;12802;53.390;-2.328;2022-11-06T16:21:53;4.53;;;2.30;;
24681;SDS011;12802;53.390;-2.328;2022-11-06T16:27:17;4.65;;;2.28;;
24681;SDS011;12802;53.390;-2.328;2022-11-06T16:29:45;8.60;;;2.28;;
24681;SDS011;12802;53.390;-2.328;2022-11-06T16:32:17;3.35;;;2.58;;
24681;SDS011;12802;53.390;-2.328;2022-11-06T16:34:45;5.60;;;2.25;;
24681;SDS011;12802;53.390;-2.328;2022-11-06T16:44:44;10.13;;;2.58;;
24681;SDS011;12802;53.390;-2.328;2022-11-06T16:47:17;6.93;;;2.38;;
24681;SDS011;12802;53.390;-2.328;2022-11-06T16:49:45;4.90;;;1.90;;
24681;SDS011;12802;53.390;-2.328;2022-11-06T16:57:23;3.40;;;1.45;;
24681;SDS011;12802;53.390;-2.328;2022-11-06T17:02:57;3.33;;;1.65;;
24681;SDS011;12802;53.390;-2.328;2022-11-06T17:05:29;5.22;;;1.77;;
24681;SDS011;12802;53.390;-2.328;2022-11-06T17:10:45;7.65;;;2.30;;
24681;SDS011;12802;53.390;-2.328;2022-11-06T17:13:13;6.45;;;1.83;;
24681;SDS011;12802;53.390;-2.328;2022-11-06T17:15:41;6.93;;;1.40;;
24681;SDS011;12802;53.390;-2.328;2022-11-06T17:18:22;3.83;;;1.70;;
24681;SDS011;12802;53.390;-2.328;2022-11-06T17:20:54;7.68;;;2.15;;
24681;SDS011;12802;53.390;-2.328;2022-11-06T17:25:49;3.55;;;2.15;;
24681;SDS011;12802;53.390;-2.328;2022-11-06T17:28:17;3.80;;;1.90;;
24681;SDS011;12802;53.390;-2.328;2022-11-06T17:30:43;2.95;;;0.93;;
24681;SDS011;12802;53.390;-2.328;2022-11-06T17:33:10;6.60;;;1.67;;
24681;SDS011;12802;53.390;-2.328;2022-11-06T17:35:36;6.15;;;1.85;;
24681;SDS011;12802;53.390;-2.328;2022-11-06T17:38:02;3.45;;;1.27;;
24681;SDS011;12802;53.390;-2.328;2022-11-06T17:40:28;5.75;;;1.55;;
24681;SDS011;12802;53.390;-2.328;2022-11-06T17:42:55;5.68;;;2.08;;
24681;SDS011;12802;53.390;-2.328;2022-11-06T17:45:21;5.35;;;2.42;;
24681;SDS011;12802;53.390;-2.328;2022-11-06T17:47:52;10.48;;;3.65;;
24681;SDS011;12802;53.390;-2.328;2022-11-06T17:50:18;7.60;;;3.38;;
24681;SDS011;12802;53.390;-2.328;2022-11-06T17:52:44;8.20;;;3.22;;
24681;SDS011;12802;53.390;-2.328;2022-11-06T17:55:10;7.15;;;3.45;;
24681;SDS011;12802;53.390;-2.328;2022-11-06T17:57:36;6.68;;;3.30;;
24681;SDS011;12802;53.390;-2.328;2022-11-06T18:00:02;3.90;;;2.38;;
24681;SDS011;12802;53.390;-2.328;2022-11-06T18:02:36;5.78;;;3.17;;
24681;SDS011;12802;53.390;-2.328;2022-11-06T18:05:02;9.68;;;2.83;;
24681;SDS011;12802;53.390;-2.328;2022-11-06T18:07:28;6.20;;;3.13;;
24681;SDS011;12802;53.390;-2.328;2022-11-06T18:09:54;7.82;;;3.53;;